createdAt,value
2019-03-06T00:00:41.609Z,96.40
2019-03-06T00:03:11.938Z,96.40
2019-03-06T00:05:42.154Z,96.40
2019-03-06T00:08:12.068Z,96.60
2019-03-06T00:10:43.108Z,96.50
2019-03-06T00:13:13.009Z,96.50
2019-03-06T00:15:42.938Z,96.50
2019-03-06T00:18:13.033Z,96.50
2019-03-06T00:20:42.967Z,96.70
2019-03-06T00:23:12.867Z,96.60
2019-03-06T00:25:42.896Z,96.60
2019-03-06T00:28:13.210Z,96.50
2019-03-06T00:30:43.235Z,96.30
2019-03-06T00:33:13.147Z,96.10
2019-03-06T00:35:47.461Z,96.10
2019-03-06T00:38:17.376Z,96.10
2019-03-06T00:40:48.918Z,96.10
2019-03-06T00:43:18.846Z,96.10
2019-03-06T00:45:48.753Z,96.10
2019-03-06T00:48:18.813Z,96.10
2019-03-06T00:50:49.136Z,96.20
2019-03-06T00:53:19.234Z,96.30
2019-03-06T00:55:49.354Z,96.70
2019-03-06T00:58:19.447Z,96.30
2019-03-06T01:00:49.567Z,96.40
2019-03-06T01:03:19.863Z,96.70
2019-03-06T01:05:50.543Z,96.80
2019-03-06T01:08:20.852Z,96.90
2019-03-06T01:10:51.165Z,97.10
2019-03-06T01:13:21.508Z,97.20
2019-03-06T01:15:51.603Z,97.30
2019-03-06T01:18:21.851Z,97.40
2019-03-06T01:20:52.864Z,97.60
2019-03-06T01:23:23.006Z,97.80
2019-03-06T01:25:53.111Z,98.10
2019-03-06T01:28:24.054Z,98.20
2019-03-06T01:30:54.165Z,98.30
2019-03-06T01:33:38.021Z,98.30
2019-03-06T01:36:12.316Z,98.50
2019-03-06T01:38:59.234Z,98.60
2019-03-06T01:41:34.179Z,98.50
2019-03-06T01:44:08.783Z,98.60
2019-03-06T01:46:38.914Z,98.70
2019-03-06T01:49:09.038Z,98.90
2019-03-06T01:51:39.417Z,99.00
2019-03-06T01:54:09.478Z,99.10
2019-03-06T01:56:39.682Z,99.10
2019-03-06T01:59:09.793Z,99.10
2019-03-06T02:01:39.937Z,99.30
2019-03-06T02:04:09.889Z,99.30
2019-03-06T02:06:39.854Z,99.50
2019-03-06T02:09:10.593Z,99.50
2019-03-06T02:11:40.905Z,99.60
2019-03-06T02:14:11.425Z,99.60
2019-03-06T02:16:41.663Z,99.70
2019-03-06T02:19:11.874Z,99.80
2019-03-06T02:21:41.997Z,99.60
2019-03-06T02:24:11.933Z,99.20
2019-03-06T02:26:41.925Z,99.10
2019-03-06T02:29:12.033Z,99.60
2019-03-06T02:31:42.173Z,99.40
2019-03-06T02:34:12.213Z,99.60
2019-03-06T02:36:42.303Z,99.60
2019-03-06T02:39:12.439Z,99.60
2019-03-06T02:41:42.638Z,99.60
2019-03-06T02:44:13.460Z,99.80
2019-03-06T02:46:43.713Z,99.90
2019-03-06T02:49:13.673Z,99.90
2019-03-06T02:51:43.804Z,99.90
2019-03-06T02:54:13.835Z,99.90
2019-03-06T02:56:43.846Z,99.90
2019-03-06T02:59:18.489Z,99.90
2019-03-06T03:01:53.103Z,99.90
2019-03-06T03:04:24.758Z,99.90
2019-03-06T03:06:56.713Z,99.90
2019-03-06T03:09:26.729Z,99.90
2019-03-06T03:11:57.168Z,99.90
2019-03-06T03:14:27.395Z,99.90
2019-03-06T03:16:57.484Z,99.90
2019-03-06T03:19:27.513Z,99.90
2019-03-06T03:21:57.524Z,99.90
2019-03-06T03:24:27.645Z,99.90
2019-03-06T03:26:57.962Z,99.90
2019-03-06T03:29:29.499Z,99.90
2019-03-06T03:31:59.651Z,99.90
2019-03-06T03:34:29.961Z,99.90
2019-03-06T03:36:59.991Z,99.90
2019-03-06T03:39:30.089Z,99.90
2019-03-06T03:42:00.213Z,99.90
2019-03-06T03:44:30.218Z,99.90
2019-03-06T03:47:00.586Z,99.90
2019-03-06T03:49:30.808Z,99.90
2019-03-06T03:52:00.988Z,99.90
2019-03-06T03:54:30.987Z,99.90
2019-03-06T03:57:01.134Z,99.90
2019-03-06T03:59:31.549Z,99.90
2019-03-06T04:02:01.845Z,99.90
2019-03-06T04:04:33.111Z,99.90
2019-03-06T04:07:03.428Z,99.90
2019-03-06T04:09:33.456Z,99.90
2019-03-06T04:12:03.673Z,99.90
2019-03-06T04:14:33.697Z,99.90
2019-03-06T04:17:03.799Z,99.90
2019-03-06T04:19:33.944Z,99.90
2019-03-06T04:22:04.152Z,99.90
2019-03-06T04:24:35.192Z,99.90
2019-03-06T04:27:05.389Z,99.90
2019-03-06T04:29:35.512Z,99.90
2019-03-06T04:32:05.840Z,99.90
2019-03-06T04:34:35.722Z,99.90
2019-03-06T04:37:05.855Z,99.90
2019-03-06T04:39:35.769Z,99.90
2019-03-06T04:42:05.692Z,99.90
2019-03-06T04:44:36.525Z,99.90
2019-03-06T04:47:07.045Z,99.90
2019-03-06T04:49:36.950Z,99.90
2019-03-06T04:52:07.910Z,99.90
2019-03-06T04:54:37.805Z,99.90
2019-03-06T04:57:07.720Z,99.90
2019-03-06T04:59:37.641Z,99.90
2019-03-06T05:02:07.639Z,99.90
2019-03-06T05:04:37.447Z,99.90
2019-03-06T05:07:07.576Z,99.90
2019-03-06T05:09:37.503Z,99.90
2019-03-06T05:12:07.392Z,99.90
2019-03-06T05:14:51.183Z,99.90
2019-03-06T05:17:25.665Z,99.90
2019-03-06T05:19:55.698Z,99.90
2019-03-06T05:22:25.818Z,99.90
2019-03-06T05:24:55.722Z,99.90
2019-03-06T05:27:25.643Z,99.90
2019-03-06T05:29:55.646Z,99.90
2019-03-06T05:32:32.852Z,99.90
2019-03-06T05:35:08.490Z,99.90
2019-03-06T05:37:50.284Z,99.90
2019-03-06T05:40:20.188Z,99.90
2019-03-06T05:42:50.246Z,99.90
2019-03-06T05:45:20.271Z,99.90
2019-03-06T05:47:50.542Z,99.90
2019-03-06T05:50:20.968Z,99.90
2019-03-06T05:52:50.882Z,99.90
2019-03-06T05:55:20.779Z,99.90
2019-03-06T05:57:50.813Z,99.90
2019-03-06T06:00:22.258Z,99.90
2019-03-06T06:02:52.272Z,99.90
2019-03-06T06:05:22.178Z,99.90
2019-03-06T06:07:52.100Z,99.90
2019-03-06T06:10:22.117Z,99.90
2019-03-06T06:12:52.768Z,99.90
2019-03-06T06:15:22.664Z,99.90
2019-03-06T06:17:52.676Z,99.90
2019-03-06T06:20:22.588Z,99.90
2019-03-06T06:23:12.578Z,99.90
2019-03-06T06:25:42.471Z,99.90
2019-03-06T06:28:13.527Z,99.90
2019-03-06T06:30:44.978Z,99.90
2019-03-06T06:33:14.865Z,99.90
2019-03-06T06:35:44.911Z,99.90
2019-03-06T06:38:14.924Z,99.90
2019-03-06T06:40:45.244Z,99.90
2019-03-06T06:43:16.274Z,99.90
2019-03-06T06:45:46.611Z,99.90
2019-03-06T06:48:21.755Z,99.90
2019-03-06T06:51:01.476Z,99.90
2019-03-06T06:53:31.801Z,99.90
2019-03-06T06:56:20.054Z,99.90
2019-03-06T06:59:08.083Z,99.90
2019-03-06T07:01:59.394Z,99.90
2019-03-06T07:04:56.244Z,99.90
2019-03-06T07:07:42.435Z,99.90
2019-03-06T07:10:17.075Z,99.90
2019-03-06T07:12:53.424Z,99.90
2019-03-06T07:15:31.025Z,99.80
2019-03-06T07:18:17.705Z,99.70
2019-03-06T07:20:49.684Z,99.80
2019-03-06T07:23:21.133Z,99.50
2019-03-06T07:26:04.974Z,99.70
2019-03-06T07:28:36.539Z,99.60
2019-03-06T07:31:14.016Z,99.30
2019-03-06T07:33:45.673Z,98.80
2019-03-06T07:36:33.925Z,99.10
2019-03-06T07:39:06.694Z,99.30
2019-03-06T07:41:41.723Z,99.20
2019-03-06T07:44:19.113Z,99.30
2019-03-06T07:47:08.484Z,99.20
2019-03-06T07:49:45.174Z,98.40
2019-03-06T07:52:19.563Z,98.00
2019-03-06T07:54:57.273Z,98.20
2019-03-06T07:57:28.683Z,98.00
2019-03-06T07:59:58.742Z,98.00
2019-03-06T08:02:56.208Z,98.30
2019-03-06T08:05:26.110Z,98.40
2019-03-06T08:07:56.024Z,98.40
2019-03-06T08:10:27.480Z,98.40
2019-03-06T08:12:58.952Z,98.40
2019-03-06T08:15:30.773Z,98.50
2019-03-06T08:18:11.352Z,98.00
2019-03-06T08:20:45.864Z,97.90
2019-03-06T08:23:17.528Z,97.90
2019-03-06T08:25:49.171Z,98.10
2019-03-06T08:28:19.097Z,98.00
2019-03-06T08:30:50.738Z,97.70
2019-03-06T08:33:20.864Z,97.30
2019-03-06T08:35:50.986Z,97.30
2019-03-06T08:38:20.889Z,97.20
2019-03-06T08:40:50.798Z,97.40
2019-03-06T08:43:20.718Z,97.60
2019-03-06T08:45:53.406Z,97.40
2019-03-06T08:48:27.818Z,97.10
2019-03-06T08:51:02.836Z,96.90
2019-03-06T08:53:43.198Z,96.90
2019-03-06T08:56:14.658Z,96.90
2019-03-06T08:58:46.210Z,96.80
2019-03-06T09:01:42.751Z,96.90
2019-03-06T09:04:17.687Z,97.10
2019-03-06T09:06:49.128Z,97.20
2019-03-06T09:09:20.678Z,97.40
2019-03-06T09:12:10.871Z,97.30
2019-03-06T09:14:59.106Z,97.20
2019-03-06T09:17:45.819Z,97.30
2019-03-06T09:20:37.042Z,97.40
2019-03-06T09:23:22.617Z,97.00
2019-03-06T09:25:50.369Z,97.00
2019-03-06T09:28:21.826Z,97.30
2019-03-06T09:31:05.627Z,97.30
2019-03-06T09:33:39.981Z,97.10
2019-03-06T09:36:14.468Z,96.90
2019-03-06T09:38:49.020Z,96.70
2019-03-06T09:41:24.266Z,96.70
2019-03-06T09:44:01.549Z,96.70
2019-03-06T09:46:49.387Z,96.60
2019-03-06T09:49:24.011Z,96.30
2019-03-06T09:51:55.457Z,96.40
2019-03-06T09:54:29.651Z,96.20
2019-03-06T09:57:19.966Z,95.50
2019-03-06T09:59:54.258Z,95.40
2019-03-06T10:02:31.555Z,95.10
2019-03-06T10:05:09.256Z,94.50
2019-03-06T10:07:40.812Z,94.00
2019-03-06T10:10:24.656Z,94.30
2019-03-06T10:13:11.151Z,94.40
2019-03-06T10:15:43.609Z,94.80
2019-03-06T10:18:16.400Z,94.80
2019-03-06T10:20:48.568Z,95.20
2019-03-06T10:23:18.698Z,95.40
2019-03-06T10:25:48.689Z,95.60
2019-03-06T10:28:27.587Z,95.50
2019-03-06T10:30:50.269Z,95.40
2019-03-06T10:33:20.191Z,94.70
2019-03-06T10:35:50.417Z,94.80
2019-03-06T10:38:20.619Z,94.90
2019-03-06T10:40:50.547Z,95.10
2019-03-06T10:43:20.577Z,95.30
2019-03-06T10:45:50.680Z,95.10
2019-03-06T10:48:20.796Z,95.10
2019-03-06T10:50:50.689Z,95.30
2019-03-06T10:53:20.609Z,95.20
2019-03-06T10:55:50.436Z,95.40
2019-03-06T10:58:20.659Z,95.20
2019-03-06T11:00:52.306Z,95.20
2019-03-06T11:03:24.259Z,95.40
2019-03-06T11:06:00.801Z,95.60
2019-03-06T11:08:31.868Z,95.70
2019-03-06T11:11:01.779Z,96.20
2019-03-06T11:13:32.929Z,96.40
2019-03-06T11:16:05.159Z,96.60
2019-03-06T11:18:35.308Z,96.40
2019-03-06T11:21:05.619Z,96.60
2019-03-06T11:23:35.861Z,96.60
2019-03-06T11:26:08.009Z,96.80
2019-03-06T11:28:38.888Z,96.90
2019-03-06T11:31:09.389Z,97.00
2019-03-06T11:33:40.078Z,96.90
2019-03-06T11:36:11.669Z,96.60
2019-03-06T11:38:41.688Z,96.40
2019-03-06T11:41:11.686Z,96.50
2019-03-06T11:43:41.608Z,96.50
2019-03-06T11:46:12.349Z,96.60
2019-03-06T11:48:42.259Z,96.90
2019-03-06T11:51:13.201Z,97.10
2019-03-06T11:53:43.108Z,97.20
2019-03-06T11:56:14.625Z,97.20
2019-03-06T11:58:44.990Z,97.10
2019-03-06T12:01:18.282Z,97.30
2019-03-06T12:03:49.159Z,97.30
2019-03-06T12:06:19.028Z,97.10
2019-03-06T12:08:49.563Z,96.70
2019-03-06T12:11:19.470Z,96.30
2019-03-06T12:13:51.305Z,95.70
2019-03-06T12:16:21.228Z,95.40
2019-03-06T12:18:51.344Z,95.20
2019-03-06T12:21:21.387Z,94.80
2019-03-06T12:23:51.712Z,95.00
2019-03-06T12:26:21.704Z,95.30
2019-03-06T12:28:51.715Z,94.80
2019-03-06T12:31:21.749Z,94.20
2019-03-06T12:33:51.862Z,94.20
2019-03-06T12:36:21.877Z,94.40
2019-03-06T12:38:51.989Z,94.30
2019-03-06T12:41:22.124Z,94.60
2019-03-06T12:43:52.114Z,94.70
2019-03-06T12:46:24.183Z,93.90
2019-03-06T12:48:57.487Z,93.20
2019-03-06T12:51:27.473Z,93.30
2019-03-06T12:53:57.614Z,93.20
2019-03-06T12:56:27.825Z,92.90
2019-03-06T12:58:57.951Z,93.10
2019-03-06T13:01:27.806Z,92.80
2019-03-06T13:03:57.884Z,93.40
2019-03-06T13:06:28.018Z,93.80
2019-03-06T13:08:58.327Z,94.30
2019-03-06T13:11:28.437Z,94.70
2019-03-06T13:13:58.556Z,94.90
2019-03-06T13:16:28.460Z,95.10
2019-03-06T13:19:00.141Z,95.50
2019-03-06T13:21:30.145Z,95.70
2019-03-06T13:24:00.267Z,95.80
2019-03-06T13:26:30.387Z,95.60
2019-03-06T13:29:01.815Z,95.30
2019-03-06T13:31:31.737Z,94.70
2019-03-06T13:34:03.295Z,94.50
2019-03-06T13:36:33.316Z,94.40
2019-03-06T13:39:06.647Z,93.70
2019-03-06T13:41:37.850Z,92.70
2019-03-06T13:44:08.252Z,93.00
2019-03-06T13:46:39.201Z,93.30
2019-03-06T13:49:09.173Z,92.80
2019-03-06T13:51:39.245Z,91.70
2019-03-06T13:54:09.236Z,91.10
2019-03-06T13:56:39.171Z,90.10
2019-03-06T13:59:09.477Z,91.00
2019-03-06T14:01:39.398Z,91.00
2019-03-06T14:04:09.528Z,91.30
2019-03-06T14:06:39.550Z,91.90
2019-03-06T14:09:09.935Z,91.80
2019-03-06T14:11:41.821Z,92.00
2019-03-06T14:14:11.943Z,92.20
2019-03-06T14:16:41.877Z,92.00
2019-03-06T14:19:11.955Z,92.00
2019-03-06T14:21:41.880Z,90.90
2019-03-06T14:24:11.873Z,90.90
2019-03-06T14:26:42.222Z,91.20
2019-03-06T14:29:12.976Z,91.60
2019-03-06T14:31:43.160Z,91.50
2019-03-06T14:34:13.294Z,91.50
2019-03-06T14:36:43.315Z,87.40
2019-03-06T14:39:25.283Z,87.00
2019-03-06T14:41:56.280Z,90.20
2019-03-06T14:44:26.459Z,91.50
2019-03-06T14:46:56.483Z,92.20
2019-03-06T14:49:26.875Z,92.70
2019-03-06T14:51:56.824Z,93.20
2019-03-06T14:54:27.965Z,93.70
2019-03-06T14:56:58.602Z,94.10
2019-03-06T14:59:28.514Z,94.00
2019-03-06T15:01:58.621Z,94.00
2019-03-06T15:04:28.896Z,94.70
2019-03-06T15:06:58.940Z,95.00
2019-03-06T15:09:29.080Z,95.40
2019-03-06T15:11:59.342Z,95.50
2019-03-06T15:14:35.782Z,94.40
2019-03-06T15:17:01.114Z,94.60
2019-03-06T15:19:31.281Z,94.80
2019-03-06T15:22:02.296Z,95.30
2019-03-06T15:24:40.907Z,95.80
2019-03-06T15:27:04.398Z,96.10
2019-03-06T15:29:35.660Z,96.30
2019-03-06T15:32:05.783Z,96.70
2019-03-06T15:34:37.322Z,96.90
2019-03-06T15:37:07.425Z,97.20
2019-03-06T15:39:45.646Z,97.40
2019-03-06T15:42:09.749Z,97.60
2019-03-06T15:44:39.959Z,97.80
2019-03-06T15:47:12.624Z,97.90
2019-03-06T15:49:42.687Z,98.10
2019-03-06T15:52:12.957Z,98.20
2019-03-06T15:54:43.190Z,98.40
2019-03-06T15:57:13.338Z,98.60
2019-03-06T15:59:43.416Z,98.80
2019-03-06T16:02:14.969Z,99.10
2019-03-06T16:04:46.712Z,99.30
2019-03-06T16:07:17.499Z,99.50
2019-03-06T16:09:47.578Z,99.70
2019-03-06T16:12:18.879Z,99.90
2019-03-06T16:14:51.228Z,99.90
2019-03-06T16:17:21.376Z,99.90
2019-03-06T16:19:52.657Z,99.90
2019-03-06T16:22:22.621Z,99.90
2019-03-06T16:24:53.815Z,99.90
2019-03-06T16:27:23.723Z,99.90
2019-03-06T16:29:53.943Z,99.90
2019-03-06T16:32:24.014Z,99.90
2019-03-06T16:34:54.061Z,99.90
2019-03-06T16:37:23.990Z,99.90
2019-03-06T16:39:54.093Z,99.90
2019-03-06T16:42:24.124Z,99.90
2019-03-06T16:44:54.138Z,99.90
2019-03-06T16:47:24.269Z,99.90
2019-03-06T16:49:54.380Z,99.90
2019-03-06T16:52:24.583Z,99.90
2019-03-06T16:54:54.611Z,99.90
2019-03-06T16:57:24.710Z,99.90
2019-03-06T16:59:55.045Z,99.90
2019-03-06T17:02:24.963Z,99.90
2019-03-06T17:04:55.032Z,99.90
2019-03-06T17:07:26.405Z,99.90
2019-03-06T17:09:56.466Z,99.90
2019-03-06T17:12:26.782Z,99.90
2019-03-06T17:14:57.299Z,99.90
2019-03-06T17:17:27.213Z,99.90
2019-03-06T17:19:57.132Z,99.90
2019-03-06T17:22:37.413Z,99.90
2019-03-06T17:25:08.020Z,99.90
2019-03-06T17:27:39.361Z,99.90
2019-03-06T17:30:12.642Z,99.90
2019-03-06T17:32:54.502Z,99.90
2019-03-06T17:35:26.648Z,99.90
2019-03-06T17:37:57.414Z,99.90
2019-03-06T17:40:29.021Z,99.90
2019-03-06T17:43:00.381Z,99.90
2019-03-06T17:45:30.771Z,99.90
2019-03-06T17:48:03.538Z,99.90
2019-03-06T17:50:34.768Z,99.90
2019-03-06T17:53:05.129Z,99.90
2019-03-06T17:55:35.438Z,99.90
2019-03-06T17:58:05.796Z,99.90
2019-03-06T18:00:43.550Z,99.90
2019-03-06T18:03:18.090Z,99.90
2019-03-06T18:05:48.080Z,99.90
2019-03-06T18:08:18.101Z,99.90
2019-03-06T18:10:48.128Z,99.90
2019-03-06T18:13:18.132Z,99.90
2019-03-06T18:15:48.065Z,99.90
2019-03-06T18:18:17.960Z,99.90
2019-03-06T18:20:47.883Z,99.90
2019-03-06T18:23:18.210Z,99.90
2019-03-06T18:25:48.524Z,99.90
2019-03-06T18:28:18.533Z,99.90
2019-03-06T18:30:48.697Z,99.90
2019-03-06T18:33:19.188Z,99.90
2019-03-06T18:35:49.531Z,99.90
2019-03-06T18:38:19.539Z,99.90
2019-03-06T18:40:51.170Z,99.90
2019-03-06T18:43:21.181Z,99.90
2019-03-06T18:45:51.102Z,99.90
2019-03-06T18:48:21.117Z,99.90
2019-03-06T18:50:51.045Z,99.90
2019-03-06T18:53:25.369Z,99.90
2019-03-06T18:55:55.843Z,99.90
2019-03-06T18:58:26.094Z,99.90
2019-03-06T19:00:56.205Z,99.90
2019-03-06T19:03:32.696Z,99.90
2019-03-06T19:06:04.036Z,99.90
2019-03-06T19:08:34.161Z,99.90
2019-03-06T19:11:04.264Z,99.90
2019-03-06T19:13:34.173Z,99.90
2019-03-06T19:16:04.199Z,99.90
2019-03-06T19:18:34.215Z,99.90
2019-03-06T19:21:04.290Z,99.90
2019-03-06T19:23:34.465Z,99.90
2019-03-06T19:26:04.641Z,99.90
2019-03-06T19:28:34.687Z,99.90
2019-03-06T19:31:04.703Z,99.90
2019-03-06T19:33:35.230Z,99.90
2019-03-06T19:36:05.243Z,99.90
2019-03-06T19:38:35.260Z,99.90
2019-03-06T19:41:06.701Z,99.90
2019-03-06T19:43:36.737Z,99.90
2019-03-06T19:46:06.835Z,99.90
2019-03-06T19:48:37.432Z,99.90
2019-03-06T19:51:07.269Z,99.90
2019-03-06T19:53:37.503Z,99.90
2019-03-06T19:56:08.862Z,99.90
2019-03-06T19:58:38.963Z,99.90
2019-03-06T20:01:09.293Z,99.90
2019-03-06T20:03:39.523Z,99.90
2019-03-06T20:06:09.523Z,99.90
2019-03-06T20:08:40.464Z,99.90
2019-03-06T20:11:10.364Z,99.90
2019-03-06T20:13:40.284Z,99.90
2019-03-06T20:16:11.414Z,99.90
2019-03-06T20:18:41.444Z,99.90
2019-03-06T20:21:11.373Z,99.90
2019-03-06T20:23:41.474Z,99.90
2019-03-06T20:26:14.517Z,99.90
2019-03-06T20:28:43.052Z,99.90
2019-03-06T20:31:13.343Z,99.90
2019-03-06T20:33:43.284Z,99.90
2019-03-06T20:36:13.301Z,99.90
2019-03-06T20:38:43.323Z,99.90
2019-03-06T20:41:14.865Z,99.90
2019-03-06T20:43:45.183Z,99.90
2019-03-06T20:46:15.214Z,99.90
2019-03-06T20:48:46.343Z,99.90
2019-03-06T20:51:16.563Z,99.90
2019-03-06T20:53:46.496Z,99.90
2019-03-06T20:56:16.612Z,99.90
2019-03-06T20:58:46.610Z,99.90
2019-03-06T21:01:17.041Z,99.90
2019-03-06T21:03:47.160Z,99.90
2019-03-06T21:06:17.384Z,99.90
2019-03-06T21:08:47.432Z,99.90
2019-03-06T21:11:17.518Z,99.90
2019-03-06T21:13:47.741Z,99.90
2019-03-06T21:16:17.750Z,99.90
2019-03-06T21:18:47.985Z,99.90
2019-03-06T21:21:18.197Z,99.90
2019-03-06T21:23:48.401Z,99.90
2019-03-06T21:26:18.333Z,99.90
2019-03-06T21:28:48.240Z,99.90
2019-03-06T21:31:18.719Z,99.90
2019-03-06T21:33:48.876Z,99.90
2019-03-06T21:36:19.929Z,99.90
2019-03-06T21:38:49.833Z,99.90
2019-03-06T21:41:19.836Z,99.90
2019-03-06T21:43:49.885Z,99.90
2019-03-06T21:46:20.296Z,99.90
2019-03-06T21:48:50.312Z,99.90
2019-03-06T21:51:20.471Z,99.90
2019-03-06T21:53:51.459Z,99.90
2019-03-06T21:56:21.435Z,99.90
2019-03-06T21:58:51.401Z,99.90
2019-03-06T22:01:21.619Z,99.90
2019-03-06T22:03:51.785Z,99.90
2019-03-06T22:06:21.758Z,99.90
2019-03-06T22:08:51.871Z,99.90
2019-03-06T22:11:21.872Z,99.90
2019-03-06T22:13:52.155Z,99.90
2019-03-06T22:16:22.316Z,99.90
2019-03-06T22:18:52.451Z,99.90
2019-03-06T22:21:22.560Z,99.90
2019-03-06T22:23:52.459Z,99.90
2019-03-06T22:26:22.795Z,99.90
2019-03-06T22:28:52.697Z,99.90
2019-03-06T22:31:22.719Z,99.90
2019-03-06T22:33:52.739Z,99.90
2019-03-06T22:36:22.967Z,99.90
2019-03-06T22:38:53.066Z,99.90
2019-03-06T22:41:23.726Z,99.90
2019-03-06T22:43:54.128Z,99.90
2019-03-06T22:46:24.967Z,99.90
2019-03-06T22:48:55.086Z,99.90
2019-03-06T22:51:25.526Z,99.90
2019-03-06T22:53:55.875Z,99.90
2019-03-06T22:56:26.273Z,99.90
2019-03-06T22:58:56.382Z,99.90
2019-03-06T23:01:27.075Z,99.90
2019-03-06T23:03:57.254Z,99.90
2019-03-06T23:06:27.157Z,99.90
2019-03-06T23:08:57.163Z,99.90
2019-03-06T23:11:29.122Z,99.90
2019-03-06T23:13:59.435Z,99.90
2019-03-06T23:16:29.914Z,99.90
2019-03-06T23:19:00.096Z,99.90
2019-03-06T23:21:30.114Z,99.90
2019-03-06T23:24:00.014Z,99.90
2019-03-06T23:26:31.154Z,99.90
2019-03-06T23:29:01.994Z,99.90
2019-03-06T23:31:32.214Z,99.90
2019-03-06T23:34:03.256Z,99.90
2019-03-06T23:36:33.253Z,99.90
2019-03-06T23:39:03.173Z,99.90
2019-03-06T23:41:34.835Z,99.90
2019-03-06T23:44:04.743Z,99.90
2019-03-06T23:46:35.174Z,99.90
2019-03-06T23:49:05.202Z,99.90
2019-03-06T23:51:35.413Z,99.90
2019-03-06T23:54:05.637Z,99.90
2019-03-06T23:56:35.754Z,99.90
2019-03-06T23:59:06.273Z,99.90
